createdAt,value
2017-11-30T00:00:52.402Z,18.92
2017-11-30T00:01:58.142Z,20.02
2017-11-30T00:03:04.616Z,19.35
2017-11-30T00:04:11.086Z,17.77
2017-11-30T00:05:16.799Z,18.75
2017-11-30T00:06:22.489Z,17.87
2017-11-30T00:07:28.233Z,19.60
2017-11-30T00:08:33.933Z,18.80
2017-11-30T00:09:40.395Z,19.15
2017-11-30T00:10:47.114Z,18.80
2017-11-30T00:11:52.828Z,19.70
2017-11-30T00:12:58.562Z,18.58
2017-11-30T00:14:04.261Z,18.90
2017-11-30T00:15:09.967Z,20.33
2017-11-30T00:16:15.668Z,19.58
2017-11-30T00:17:22.142Z,20.55
2017-11-30T00:18:27.862Z,19.15
2017-11-30T00:19:34.343Z,19.87
2017-11-30T00:20:40.066Z,18.33
2017-11-30T00:21:46.536Z,19.75
2017-11-30T00:22:52.234Z,20.12
2017-11-30T00:23:57.754Z,18.62
2017-11-30T00:25:03.475Z,18.70
2017-11-30T00:26:08.522Z,18.50
2017-11-30T00:27:13.903Z,19.48
2017-11-30T00:28:19.280Z,20.60
2017-11-30T00:29:25.008Z,20.10
2017-11-30T00:30:30.374Z,18.20
2017-11-30T00:31:36.091Z,18.02
2017-11-30T00:32:41.604Z,19.00
2017-11-30T00:33:47.331Z,18.60
2017-11-30T00:34:53.060Z,17.95
2017-11-30T00:35:59.346Z,17.62
2017-11-30T00:37:05.050Z,18.52
2017-11-30T00:38:11.518Z,19.02
2017-11-30T00:39:17.213Z,17.98
2017-11-30T00:40:22.948Z,19.23
2017-11-30T00:41:28.711Z,19.85
2017-11-30T00:42:51.141Z,19.62
2017-11-30T00:43:55.960Z,18.58
2017-11-30T00:45:01.678Z,17.58
2017-11-30T00:46:07.414Z,18.40
2017-11-30T00:47:13.118Z,17.35
2017-11-30T00:48:18.826Z,18.77
2017-11-30T00:49:24.531Z,19.30
2017-11-30T00:50:30.247Z,17.75
2017-11-30T00:51:35.705Z,18.92
2017-11-30T00:52:41.410Z,18.37
2017-11-30T00:53:47.387Z,19.70
2017-11-30T00:54:53.098Z,19.77
2017-11-30T00:55:58.789Z,19.48
2017-11-30T00:57:04.523Z,17.60
2017-11-30T00:58:10.222Z,18.45
2017-11-30T00:59:15.730Z,17.98
2017-11-30T01:00:22.204Z,17.55
2017-11-30T01:01:28.728Z,17.92
2017-11-30T01:02:34.441Z,17.20
2017-11-30T01:03:40.153Z,45.38
2017-11-30T01:04:45.853Z,18.58
2017-11-30T01:05:51.563Z,19.12
2017-11-30T01:06:57.270Z,17.98
2017-11-30T01:08:03.768Z,17.83
2017-11-30T01:09:09.473Z,17.67
2017-11-30T01:10:15.936Z,17.48
2017-11-30T01:11:21.630Z,17.98
2017-11-30T01:12:27.336Z,16.58
2017-11-30T01:13:33.088Z,18.35
2017-11-30T01:14:38.792Z,17.70
2017-11-30T01:15:44.497Z,17.95
2017-11-30T01:16:50.209Z,20.92
2017-11-30T01:17:55.912Z,17.08
2017-11-30T01:19:01.311Z,17.12
2017-11-30T01:20:07.800Z,17.20
2017-11-30T01:21:27.283Z,17.80
2017-11-30T01:22:32.988Z,16.27
2017-11-30T01:23:39.464Z,18.05
2017-11-30T01:24:45.188Z,18.17
2017-11-30T01:25:51.660Z,17.45
2017-11-30T01:26:57.382Z,17.77
2017-11-30T01:28:03.847Z,17.15
2017-11-30T01:29:10.330Z,18.00
2017-11-30T01:30:15.881Z,16.85
2017-11-30T01:31:21.612Z,20.15
2017-11-30T01:32:27.323Z,17.25
2017-11-30T01:33:33.826Z,17.05
2017-11-30T01:34:39.541Z,17.05
2017-11-30T01:35:45.283Z,16.87
2017-11-30T01:36:50.982Z,17.40
2017-11-30T01:37:56.695Z,17.02
2017-11-30T01:39:02.410Z,17.80
2017-11-30T01:40:08.126Z,17.20
2017-11-30T01:41:14.620Z,17.05
2017-11-30T01:42:20.344Z,17.70
2017-11-30T01:43:26.051Z,16.30
2017-11-30T01:44:31.765Z,17.20
2017-11-30T01:45:37.484Z,17.30
2017-11-30T01:46:43.219Z,18.40
2017-11-30T01:47:48.960Z,18.17
2017-11-30T01:48:54.659Z,16.83
2017-11-30T01:50:00.437Z,19.23
2017-11-30T01:51:06.148Z,17.65
2017-11-30T01:52:11.867Z,16.95
2017-11-30T01:53:17.564Z,18.48
2017-11-30T01:54:22.958Z,19.77
2017-11-30T01:55:28.660Z,17.85
2017-11-30T01:56:34.034Z,19.58
2017-11-30T01:57:40.527Z,18.95
2017-11-30T01:58:46.240Z,16.73
2017-11-30T01:59:52.716Z,18.62
2017-11-30T02:00:58.247Z,17.90
2017-11-30T02:02:03.716Z,18.52
2017-11-30T02:03:09.459Z,17.80
2017-11-30T02:04:15.170Z,16.87
2017-11-30T02:05:20.867Z,18.35
2017-11-30T02:06:26.589Z,19.58
2017-11-30T02:07:32.305Z,17.77
2017-11-30T02:08:38.042Z,19.75
2017-11-30T02:09:43.570Z,17.37
2017-11-30T02:10:49.269Z,18.80
2017-11-30T02:11:54.807Z,18.92
2017-11-30T02:13:01.284Z,17.70
2017-11-30T02:14:07.784Z,18.45
2017-11-30T02:15:13.500Z,17.90
2017-11-30T02:16:19.203Z,18.50
2017-11-30T02:17:24.913Z,19.20
2017-11-30T02:18:30.618Z,17.65
2017-11-30T02:19:36.157Z,18.80
2017-11-30T02:20:41.541Z,18.73
2017-11-30T02:21:47.236Z,18.65
2017-11-30T02:22:52.619Z,18.42
2017-11-30T02:23:57.671Z,20.02
2017-11-30T02:25:03.834Z,18.80
2017-11-30T02:26:09.227Z,18.42
2017-11-30T02:27:14.603Z,17.98
2017-11-30T02:28:19.979Z,17.75
2017-11-30T02:29:25.015Z,18.77
2017-11-30T02:30:30.453Z,19.20
2017-11-30T02:31:35.313Z,18.27
2017-11-30T02:32:40.690Z,19.10
2017-11-30T02:33:45.741Z,18.52
2017-11-30T02:34:51.878Z,18.00
2017-11-30T02:35:56.949Z,17.40
2017-11-30T02:37:02.656Z,17.67
2017-11-30T02:38:08.165Z,17.90
2017-11-30T02:39:13.876Z,20.05
2017-11-30T02:40:18.915Z,18.12
2017-11-30T02:41:24.650Z,17.50
2017-11-30T02:42:30.034Z,16.95
2017-11-30T02:43:36.167Z,17.75
2017-11-30T02:44:41.315Z,18.37
2017-11-30T02:45:47.612Z,17.70
2017-11-30T02:46:53.341Z,18.52
2017-11-30T02:47:58.545Z,18.02
2017-11-30T02:49:04.684Z,18.62
2017-11-30T02:50:10.832Z,16.75
2017-11-30T02:51:16.679Z,18.58
2017-11-30T02:52:21.763Z,17.85
2017-11-30T02:53:27.132Z,16.95
2017-11-30T02:54:32.964Z,16.92
2017-11-30T02:55:38.671Z,16.42
2017-11-30T02:56:44.045Z,18.12
2017-11-30T02:57:49.774Z,17.73
2017-11-30T02:58:55.484Z,19.20
2017-11-30T03:00:00.519Z,17.45
2017-11-30T03:01:05.578Z,17.70
2017-11-30T03:02:11.111Z,18.27
2017-11-30T03:03:16.830Z,16.87
2017-11-30T03:04:22.198Z,18.33
2017-11-30T03:05:28.337Z,17.62
2017-11-30T03:06:34.037Z,18.80
2017-11-30T03:07:39.371Z,18.30
2017-11-30T03:08:44.466Z,18.00
2017-11-30T03:09:49.835Z,17.52
2017-11-30T03:10:54.886Z,15.90
2017-11-30T03:12:00.591Z,16.52
2017-11-30T03:13:05.958Z,17.27
2017-11-30T03:14:11.363Z,17.12
2017-11-30T03:15:16.743Z,16.87
2017-11-30T03:16:23.218Z,14.95
2017-11-30T03:17:28.929Z,18.08
2017-11-30T03:18:34.631Z,16.70
2017-11-30T03:19:40.048Z,17.10
2017-11-30T03:20:45.741Z,16.52
2017-11-30T03:21:51.449Z,17.40
2017-11-30T03:22:57.147Z,17.45
2017-11-30T03:24:02.847Z,17.35
2017-11-30T03:25:08.578Z,18.42
2017-11-30T03:26:14.279Z,16.60
2017-11-30T03:27:19.995Z,16.70
2017-11-30T03:28:26.283Z,15.95
2017-11-30T03:29:31.978Z,17.50
2017-11-30T03:30:37.711Z,17.17
2017-11-30T03:31:43.414Z,16.05
2017-11-30T03:32:48.790Z,15.45
2017-11-30T03:33:54.559Z,18.30
2017-11-30T03:35:00.263Z,17.17
2017-11-30T03:36:05.985Z,17.33
2017-11-30T03:37:11.025Z,16.20
2017-11-30T03:38:16.724Z,17.27
2017-11-30T03:39:22.447Z,17.52
2017-11-30T03:40:28.153Z,18.08
2017-11-30T03:41:33.893Z,17.58
2017-11-30T03:42:39.624Z,18.58
2017-11-30T03:43:45.326Z,16.67
2017-11-30T03:44:51.045Z,17.75
2017-11-30T03:45:57.513Z,17.65
2017-11-30T03:47:03.254Z,16.60
2017-11-30T03:48:08.961Z,18.00
2017-11-30T03:49:14.672Z,17.75
2017-11-30T03:50:20.383Z,17.42
2017-11-30T03:51:26.077Z,16.10
2017-11-30T03:52:31.802Z,18.17
2017-11-30T03:53:37.504Z,17.27
2017-11-30T03:54:43.198Z,17.67
2017-11-30T03:55:48.904Z,16.92
2017-11-30T03:56:54.614Z,17.87
2017-11-30T03:58:00.330Z,18.62
2017-11-30T03:59:06.821Z,18.60
2017-11-30T04:00:12.204Z,18.02
2017-11-30T04:01:17.922Z,19.55
2017-11-30T04:02:23.626Z,17.40
2017-11-30T04:03:29.342Z,16.95
2017-11-30T04:04:35.643Z,17.10
2017-11-30T04:05:41.339Z,19.35
2017-11-30T04:06:47.802Z,17.08
2017-11-30T04:07:54.285Z,17.12
2017-11-30T04:09:00.021Z,19.60
2017-11-30T04:10:05.547Z,17.87
2017-11-30T04:11:12.019Z,19.45
2017-11-30T04:12:17.713Z,18.05
2017-11-30T04:13:23.252Z,19.20
2017-11-30T04:14:28.988Z,18.48
2017-11-30T04:15:34.492Z,18.37
2017-11-30T04:16:40.003Z,19.15
2017-11-30T04:17:45.713Z,18.15
2017-11-30T04:18:52.198Z,18.87
2017-11-30T04:19:57.926Z,18.80
2017-11-30T04:21:04.388Z,18.30
2017-11-30T04:22:10.869Z,18.08
2017-11-30T04:23:16.567Z,18.55
2017-11-30T04:24:22.268Z,18.55
2017-11-30T04:25:28.009Z,19.70
2017-11-30T04:26:33.727Z,19.02
2017-11-30T04:27:39.427Z,18.85
2017-11-30T04:28:45.145Z,19.10
2017-11-30T04:29:50.846Z,19.02
2017-11-30T04:30:56.592Z,20.88
2017-11-30T04:32:02.293Z,20.88
2017-11-30T04:33:08.557Z,19.90
2017-11-30T04:34:14.860Z,19.60
2017-11-30T04:35:20.551Z,19.75
2017-11-30T04:36:27.043Z,18.42
2017-11-30T04:37:32.570Z,19.17
2017-11-30T04:38:38.617Z,20.30
2017-11-30T04:39:44.327Z,20.77
2017-11-30T04:40:50.618Z,18.75
2017-11-30T04:41:56.433Z,20.70
2017-11-30T04:43:02.919Z,19.70
2017-11-30T04:44:08.442Z,19.48
2017-11-30T04:45:14.159Z,19.30
2017-11-30T04:46:20.270Z,19.98
2017-11-30T04:47:26.015Z,20.65
2017-11-30T04:48:31.741Z,19.05
2017-11-30T04:49:37.471Z,19.67
2017-11-30T04:50:43.177Z,19.33
2017-11-30T04:51:49.478Z,21.65
2017-11-30T04:52:55.206Z,20.45
2017-11-30T04:54:00.740Z,19.35
2017-11-30T04:55:06.464Z,19.92
2017-11-30T04:56:12.161Z,21.12
2017-11-30T04:57:17.674Z,20.27
2017-11-30T04:58:23.438Z,19.83
2017-11-30T04:59:28.966Z,20.42
2017-11-30T05:00:34.666Z,20.25
2017-11-30T05:01:40.383Z,19.67
2017-11-30T05:02:46.871Z,19.95
2017-11-30T05:03:52.607Z,21.62
2017-11-30T05:04:58.343Z,20.02
2017-11-30T05:06:03.403Z,20.05
2017-11-30T05:07:08.806Z,22.40
2017-11-30T05:08:14.536Z,19.30
2017-11-30T05:09:19.926Z,19.80
2017-11-30T05:10:25.634Z,20.37
2017-11-30T05:11:31.338Z,21.00
2017-11-30T05:12:37.616Z,20.10
2017-11-30T05:13:43.523Z,19.65
2017-11-30T05:14:50.047Z,20.42
2017-11-30T05:15:55.624Z,19.87
2017-11-30T05:17:01.335Z,19.15
2017-11-30T05:18:07.055Z,19.83
2017-11-30T05:19:12.876Z,22.00
2017-11-30T05:20:18.627Z,20.60
2017-11-30T05:21:24.358Z,21.55
2017-11-30T05:22:30.072Z,20.00
2017-11-30T05:23:36.554Z,19.95
2017-11-30T05:24:42.266Z,21.30
2017-11-30T05:25:48.756Z,21.12
2017-11-30T05:26:54.459Z,19.37
2017-11-30T05:28:00.167Z,20.73
2017-11-30T05:29:05.558Z,20.08
2017-11-30T05:30:11.259Z,20.35
2017-11-30T05:31:16.994Z,19.70
2017-11-30T05:32:22.531Z,19.92
2017-11-30T05:33:28.233Z,19.87
2017-11-30T05:34:33.764Z,19.85
2017-11-30T05:35:39.516Z,18.85
2017-11-30T05:36:45.271Z,20.62
2017-11-30T05:37:50.994Z,19.50
2017-11-30T05:38:56.689Z,20.00
2017-11-30T05:40:03.191Z,18.98
2017-11-30T05:41:08.951Z,20.35
2017-11-30T05:42:14.695Z,20.98
2017-11-30T05:43:20.401Z,19.60
2017-11-30T05:44:26.117Z,21.27
2017-11-30T05:45:32.734Z,20.77
2017-11-30T05:46:38.457Z,19.50
2017-11-30T05:47:44.201Z,19.80
2017-11-30T05:48:49.929Z,20.95
2017-11-30T05:49:55.635Z,20.88
2017-11-30T05:51:01.369Z,20.23
2017-11-30T05:52:07.086Z,19.75
2017-11-30T05:53:12.831Z,19.45
2017-11-30T05:54:18.529Z,18.67
2017-11-30T05:55:24.249Z,21.10
2017-11-30T05:56:30.711Z,20.27
2017-11-30T05:57:37.182Z,19.35
2017-11-30T05:58:42.911Z,19.20
2017-11-30T05:59:49.378Z,18.90
2017-11-30T06:00:55.859Z,19.05
2017-11-30T06:02:01.554Z,19.60
2017-11-30T06:03:07.256Z,20.48
2017-11-30T06:04:12.994Z,19.80
2017-11-30T06:05:18.726Z,20.40
2017-11-30T06:06:24.427Z,19.23
2017-11-30T06:07:30.906Z,19.35
2017-11-30T06:08:36.617Z,19.55
2017-11-30T06:09:42.358Z,21.48
2017-11-30T06:10:48.839Z,21.15
2017-11-30T06:11:54.554Z,19.98
2017-11-30T06:13:00.297Z,20.05
2017-11-30T06:14:05.998Z,19.52
2017-11-30T06:15:11.745Z,20.90
2017-11-30T06:16:17.471Z,20.58
2017-11-30T06:17:23.212Z,19.65
2017-11-30T06:18:28.907Z,21.35
2017-11-30T06:19:35.398Z,21.25
2017-11-30T06:20:41.134Z,20.42
2017-11-30T06:21:46.636Z,21.90
2017-11-30T06:22:53.106Z,20.40
2017-11-30T06:23:58.836Z,22.40
2017-11-30T06:25:05.146Z,20.20
2017-11-30T06:26:10.904Z,22.70
2017-11-30T06:27:16.611Z,23.05
2017-11-30T06:28:22.328Z,21.92
2017-11-30T06:29:28.055Z,22.62
2017-11-30T06:30:33.589Z,21.77
2017-11-30T06:31:40.086Z,20.85
2017-11-30T06:32:46.305Z,22.87
2017-11-30T06:33:52.591Z,22.62
2017-11-30T06:34:58.296Z,23.58
2017-11-30T06:36:04.579Z,20.65
2017-11-30T06:37:10.311Z,23.20
2017-11-30T06:38:15.831Z,21.08
2017-11-30T06:39:22.308Z,21.65
2017-11-30T06:40:27.619Z,21.20
2017-11-30T06:41:33.907Z,20.45
2017-11-30T06:42:39.640Z,20.30
2017-11-30T06:43:45.193Z,20.95
2017-11-30T06:44:50.900Z,20.98
2017-11-30T06:45:56.423Z,21.30
2017-11-30T06:47:02.895Z,22.23
2017-11-30T06:48:09.207Z,21.05
2017-11-30T06:49:14.918Z,21.65
2017-11-30T06:50:20.438Z,21.12
2017-11-30T06:51:25.973Z,22.30
2017-11-30T06:52:31.669Z,20.45
2017-11-30T06:53:37.397Z,22.02
2017-11-30T06:54:43.107Z,20.80
2017-11-30T06:55:48.631Z,20.15
2017-11-30T06:56:54.154Z,23.38
2017-11-30T06:58:00.442Z,20.75
2017-11-30T06:59:05.659Z,20.90
2017-11-30T07:00:11.375Z,21.30
2017-11-30T07:01:17.844Z,21.10
2017-11-30T07:02:23.567Z,21.52
2017-11-30T07:03:30.053Z,20.33
2017-11-30T07:04:35.822Z,21.90
2017-11-30T07:05:41.523Z,21.40
2017-11-30T07:06:47.243Z,20.40
2017-11-30T07:07:53.710Z,21.80
2017-11-30T07:09:00.188Z,20.25
2017-11-30T07:10:05.935Z,21.40
2017-11-30T07:11:11.644Z,20.33
2017-11-30T07:12:18.129Z,20.50
2017-11-30T07:13:23.839Z,21.85
2017-11-30T07:14:30.334Z,20.90
2017-11-30T07:15:36.088Z,21.05
2017-11-30T07:16:41.804Z,21.50
2017-11-30T07:17:47.498Z,21.83
2017-11-30T07:18:53.489Z,20.75
2017-11-30T07:19:59.202Z,18.42
2017-11-30T07:21:04.934Z,18.70
2017-11-30T07:22:10.638Z,20.55
2017-11-30T07:23:16.349Z,20.62
2017-11-30T07:24:22.079Z,20.23
2017-11-30T07:25:28.551Z,19.37
2017-11-30T07:26:34.293Z,20.92
2017-11-30T07:27:39.815Z,21.45
2017-11-30T07:28:46.283Z,21.23
2017-11-30T07:29:51.826Z,21.15
2017-11-30T07:30:57.549Z,20.30
2017-11-30T07:32:04.049Z,20.12
2017-11-30T07:33:09.585Z,20.83
2017-11-30T07:34:15.295Z,20.00
2017-11-30T07:35:20.826Z,21.98
2017-11-30T07:36:27.326Z,20.17
2017-11-30T07:37:33.098Z,18.75
2017-11-30T07:38:38.802Z,18.50
2017-11-30T07:39:44.331Z,20.50
2017-11-30T07:40:50.039Z,19.80
2017-11-30T07:41:56.498Z,19.23
2017-11-30T07:43:03.017Z,19.70
2017-11-30T07:44:08.719Z,20.17
2017-11-30T07:45:14.430Z,18.55
2017-11-30T07:46:20.892Z,19.65
2017-11-30T07:47:27.370Z,20.17
2017-11-30T07:48:33.116Z,21.33
2017-11-30T07:49:38.826Z,21.25
2017-11-30T07:50:45.339Z,21.05
2017-11-30T07:51:51.055Z,19.35
2017-11-30T07:52:56.763Z,20.17
2017-11-30T07:54:02.494Z,20.75
2017-11-30T07:55:08.222Z,20.52
2017-11-30T07:56:13.939Z,20.75
2017-11-30T07:57:19.658Z,21.02
2017-11-30T07:58:25.376Z,19.98
2017-11-30T07:59:31.903Z,19.40
2017-11-30T08:00:37.617Z,19.65
2017-11-30T08:01:43.322Z,22.15
2017-11-30T08:02:49.798Z,22.02
2017-11-30T08:03:55.502Z,20.45
2017-11-30T08:05:01.246Z,18.80
2017-11-30T08:06:07.142Z,20.17
2017-11-30T08:07:12.842Z,21.23
2017-11-30T08:08:19.360Z,20.12
2017-11-30T08:09:25.062Z,20.15
2017-11-30T08:10:30.799Z,20.17
2017-11-30T08:11:36.502Z,21.67
2017-11-30T08:12:42.386Z,21.80
2017-11-30T08:13:48.106Z,22.45
2017-11-30T08:14:54.610Z,21.15
2017-11-30T08:16:00.352Z,23.15
2017-11-30T08:17:06.068Z,21.98
2017-11-30T08:18:11.784Z,22.25
2017-11-30T08:19:18.281Z,20.65
2017-11-30T08:20:23.994Z,21.42
2017-11-30T08:21:30.498Z,21.65
2017-11-30T08:22:36.223Z,21.50
2017-11-30T08:23:41.927Z,21.00
2017-11-30T08:24:48.400Z,22.25
2017-11-30T08:25:53.785Z,21.77
2017-11-30T08:26:59.520Z,20.45
2017-11-30T08:28:05.219Z,20.33
2017-11-30T08:29:10.928Z,19.62
2017-11-30T08:30:17.416Z,20.92
2017-11-30T08:31:23.133Z,20.25
2017-11-30T08:32:29.652Z,20.23
2017-11-30T08:33:35.361Z,20.17
2017-11-30T08:34:41.201Z,20.65
2017-11-30T08:35:46.906Z,20.50
2017-11-30T08:36:52.290Z,19.80
2017-11-30T08:37:59.238Z,20.27
2017-11-30T08:39:04.046Z,20.05
2017-11-30T08:40:10.190Z,20.60
2017-11-30T08:41:16.707Z,21.10
2017-11-30T08:42:22.411Z,20.75
2017-11-30T08:43:28.187Z,20.75
2017-11-30T08:44:33.734Z,20.48
2017-11-30T08:45:39.446Z,20.20
2017-11-30T08:46:44.982Z,19.17
2017-11-30T08:47:50.883Z,20.95
2017-11-30T08:48:57.057Z,21.02
2017-11-30T08:50:02.594Z,20.65
2017-11-30T08:51:09.065Z,22.83
2017-11-30T08:52:14.580Z,19.75
2017-11-30T08:53:21.081Z,21.00
2017-11-30T08:54:26.833Z,19.60
2017-11-30T08:55:32.539Z,20.30
2017-11-30T08:56:38.241Z,19.62
2017-11-30T08:57:43.968Z,19.37
2017-11-30T08:58:49.876Z,18.92
2017-11-30T08:59:55.641Z,20.15
2017-11-30T09:01:01.363Z,21.08
2017-11-30T09:02:06.417Z,18.77
2017-11-30T09:03:12.125Z,18.37
2017-11-30T09:04:17.834Z,19.27
2017-11-30T09:05:24.356Z,17.87
2017-11-30T09:06:30.069Z,19.02
2017-11-30T09:07:35.792Z,19.33
2017-11-30T09:08:41.310Z,19.00
2017-11-30T09:09:47.019Z,19.83
2017-11-30T09:10:52.755Z,20.10
2017-11-30T09:11:58.466Z,19.00
2017-11-30T09:13:04.191Z,19.33
2017-11-30T09:14:09.926Z,18.48
2017-11-30T09:15:15.363Z,18.15
2017-11-30T09:16:21.113Z,19.12
2017-11-30T09:17:26.817Z,18.60
2017-11-30T09:18:33.298Z,18.83
2017-11-30T09:19:39.010Z,28.48
2017-11-30T09:20:44.713Z,19.58
2017-11-30T09:21:50.450Z,18.08
2017-11-30T09:22:56.164Z,18.80
2017-11-30T09:24:01.544Z,18.10
2017-11-30T09:25:07.268Z,19.25
2017-11-30T09:26:12.996Z,18.83
2017-11-30T09:27:18.735Z,18.73
2017-11-30T09:28:24.634Z,17.33
2017-11-30T09:29:31.112Z,19.33
2017-11-30T09:30:37.574Z,18.92
2017-11-30T09:31:43.285Z,19.70
2017-11-30T09:32:49.030Z,19.08
2017-11-30T09:33:54.938Z,17.98
2017-11-30T09:35:00.679Z,17.70
2017-11-30T09:36:06.190Z,17.25
2017-11-30T09:37:11.918Z,19.98
2017-11-30T09:38:17.721Z,19.12
2017-11-30T09:39:23.247Z,19.00
2017-11-30T09:40:29.156Z,18.95
2017-11-30T09:41:34.863Z,18.67
2017-11-30T09:42:41.344Z,19.60
2017-11-30T09:43:46.897Z,19.75
2017-11-30T09:44:52.599Z,16.73
2017-11-30T09:45:59.878Z,18.48
2017-11-30T09:47:06.355Z,19.77
2017-11-30T09:48:12.052Z,18.15
2017-11-30T09:49:17.594Z,19.52
2017-11-30T09:50:23.097Z,19.62
2017-11-30T09:51:28.626Z,20.77
2017-11-30T09:52:34.345Z,18.87
2017-11-30T09:53:40.051Z,18.52
2017-11-30T09:54:45.596Z,19.62
2017-11-30T09:55:52.074Z,20.35
2017-11-30T09:56:58.357Z,20.10
2017-11-30T09:58:04.063Z,19.17
2017-11-30T09:59:09.564Z,16.90
2017-11-30T10:00:15.295Z,21.20
2017-11-30T10:01:20.807Z,18.20
2017-11-30T10:02:26.508Z,18.87
2017-11-30T10:03:33.002Z,19.73
2017-11-30T10:04:38.902Z,20.37
2017-11-30T10:05:44.695Z,18.37
2017-11-30T10:06:50.238Z,24.02
2017-11-30T10:07:55.989Z,19.83
2017-11-30T10:09:01.709Z,18.92
2017-11-30T10:10:07.426Z,18.25
2017-11-30T10:11:13.743Z,18.27
2017-11-30T10:12:19.446Z,17.52
2017-11-30T10:13:25.152Z,19.85
2017-11-30T10:14:31.618Z,18.27
2017-11-30T10:15:37.126Z,19.20
2017-11-30T10:16:42.856Z,18.42
2017-11-30T10:17:48.556Z,18.15
2017-11-30T10:18:54.274Z,19.92
2017-11-30T10:19:59.982Z,18.50
2017-11-30T10:21:05.354Z,19.77
2017-11-30T10:22:11.090Z,18.33
2017-11-30T10:23:16.810Z,20.17
2017-11-30T10:24:23.284Z,18.05
2017-11-30T10:25:28.994Z,19.00
2017-11-30T10:26:34.702Z,17.62
2017-11-30T10:27:40.227Z,19.40
2017-11-30T10:28:45.938Z,18.35
2017-11-30T10:29:52.412Z,17.77
2017-11-30T10:30:58.115Z,20.70
2017-11-30T10:32:03.639Z,21.25
2017-11-30T10:33:09.592Z,19.30
2017-11-30T10:34:15.331Z,19.73
2017-11-30T10:35:21.064Z,20.83
2017-11-30T10:36:26.816Z,19.37
2017-11-30T10:37:32.730Z,19.15
2017-11-30T10:38:38.452Z,19.65
2017-11-30T10:39:44.031Z,19.95
2017-11-30T10:40:49.882Z,21.90
2017-11-30T10:41:55.590Z,21.67
2017-11-30T10:43:01.130Z,19.30
2017-11-30T10:44:06.869Z,17.80
2017-11-30T10:45:12.230Z,19.55
2017-11-30T10:46:17.941Z,21.27
2017-11-30T10:47:23.651Z,18.90
2017-11-30T10:48:29.358Z,19.58
2017-11-30T10:49:35.079Z,18.27
2017-11-30T10:50:40.797Z,18.45
2017-11-30T10:51:46.502Z,17.37
2017-11-30T10:52:52.967Z,18.10
2017-11-30T10:53:58.676Z,18.30
2017-11-30T10:55:05.924Z,20.08
2017-11-30T10:56:11.631Z,17.55
2017-11-30T10:57:17.333Z,17.65
2017-11-30T10:58:23.031Z,17.98
2017-11-30T10:59:28.742Z,17.87
2017-11-30T11:00:34.485Z,17.40
2017-11-30T11:01:40.190Z,16.70
2017-11-30T11:02:45.899Z,16.98
2017-11-30T11:03:51.606Z,18.15
2017-11-30T11:04:57.349Z,18.02
2017-11-30T11:06:03.087Z,18.37
2017-11-30T11:07:08.795Z,18.20
2017-11-30T11:08:14.492Z,18.92
2017-11-30T11:09:20.225Z,17.67
2017-11-30T11:10:25.954Z,17.62
2017-11-30T11:11:31.722Z,18.25
2017-11-30T11:12:37.427Z,18.75
2017-11-30T11:13:43.142Z,17.75
2017-11-30T11:14:49.058Z,18.23
2017-11-30T11:15:54.773Z,17.73
2017-11-30T11:17:00.513Z,17.92
2017-11-30T11:18:06.417Z,18.50
2017-11-30T11:19:12.132Z,17.25
2017-11-30T11:20:17.847Z,16.90
2017-11-30T11:21:23.567Z,17.73
2017-11-30T11:22:29.302Z,17.35
2017-11-30T11:23:35.007Z,17.20
2017-11-30T11:24:40.706Z,16.30
2017-11-30T11:25:46.423Z,16.15
2017-11-30T11:26:52.886Z,16.65
2017-11-30T11:27:58.617Z,17.95
2017-11-30T11:29:05.089Z,16.42
2017-11-30T11:30:09.852Z,18.20
2017-11-30T11:31:15.403Z,17.35
2017-11-30T11:32:21.103Z,16.95
2017-11-30T11:33:26.830Z,19.30
2017-11-30T11:34:32.535Z,16.95
2017-11-30T11:35:38.994Z,18.23
2017-11-30T11:36:45.482Z,19.42
2017-11-30T11:37:51.184Z,19.33
2017-11-30T11:38:56.911Z,18.92
2017-11-30T11:40:02.827Z,19.50
2017-11-30T11:41:07.861Z,18.30
2017-11-30T11:42:13.564Z,18.70
2017-11-30T11:43:18.934Z,18.62
2017-11-30T11:44:24.670Z,18.95
2017-11-30T11:45:30.382Z,18.70
2017-11-30T11:46:36.319Z,17.73
2017-11-30T11:47:42.045Z,16.50
2017-11-30T11:48:48.736Z,17.10
2017-11-30T11:49:54.467Z,18.87
2017-11-30T11:51:00.743Z,17.87
2017-11-30T11:52:06.446Z,19.23
2017-11-30T11:53:12.919Z,18.12
2017-11-30T11:54:19.397Z,17.45
2017-11-30T11:55:25.130Z,33.08
2017-11-30T11:56:30.851Z,17.37
2017-11-30T11:57:37.117Z,18.33
2017-11-30T11:58:42.829Z,17.52
2017-11-30T11:59:48.562Z,17.00
2017-11-30T12:00:54.292Z,18.45
2017-11-30T12:02:00.229Z,17.15
2017-11-30T12:03:05.739Z,17.77
2017-11-30T12:04:11.447Z,17.73
2017-11-30T12:05:17.741Z,16.95
2017-11-30T12:06:23.494Z,17.12
2017-11-30T12:07:29.217Z,17.75
2017-11-30T12:08:35.006Z,19.58
2017-11-30T12:09:40.709Z,16.80
2017-11-30T12:10:46.419Z,16.98
2017-11-30T12:11:52.162Z,16.62
2017-11-30T12:12:57.201Z,16.73
2017-11-30T12:14:02.923Z,17.08
2017-11-30T12:15:08.645Z,16.67
2017-11-30T12:16:15.128Z,15.68
2017-11-30T12:17:20.859Z,16.50
2017-11-30T12:18:26.567Z,16.75
2017-11-30T12:19:32.281Z,16.25
2017-11-30T12:20:37.997Z,16.08
2017-11-30T12:21:43.692Z,16.80
2017-11-30T12:22:49.431Z,17.00
2017-11-30T12:23:55.137Z,14.82
2017-11-30T12:25:00.875Z,16.85
2017-11-30T12:26:06.626Z,16.60
2017-11-30T12:27:12.352Z,14.93
2017-11-30T12:28:18.080Z,18.27
2017-11-30T12:29:23.808Z,15.25
2017-11-30T12:30:29.523Z,15.30
2017-11-30T12:31:35.998Z,15.60
2017-11-30T12:32:42.478Z,24.52
2017-11-30T12:33:48.215Z,14.63
2017-11-30T12:34:53.934Z,13.82
2017-11-30T12:35:59.667Z,14.50
2017-11-30T12:37:06.151Z,15.57
2017-11-30T12:38:11.673Z,15.07
2017-11-30T12:39:17.427Z,15.20
2017-11-30T12:40:22.954Z,14.50
2017-11-30T12:41:28.679Z,17.23
2017-11-30T12:42:35.170Z,15.93
2017-11-30T12:43:40.872Z,15.75
2017-11-30T12:44:47.370Z,15.00
2017-11-30T12:45:53.109Z,14.38
2017-11-30T12:46:59.765Z,15.13
2017-11-30T12:48:05.470Z,15.40
2017-11-30T12:49:11.177Z,17.45
2017-11-30T12:50:16.918Z,13.10
2017-11-30T12:51:22.623Z,15.75
2017-11-30T12:52:29.799Z,15.48
2017-11-30T12:53:35.507Z,14.63
2017-11-30T12:54:41.220Z,14.87
2017-11-30T12:55:46.979Z,15.52
2017-11-30T12:56:52.694Z,14.20
2017-11-30T12:57:58.400Z,15.60
2017-11-30T12:59:04.134Z,15.07
2017-11-30T13:00:09.776Z,14.87
2017-11-30T13:01:15.562Z,13.85
2017-11-30T13:02:21.445Z,15.00
2017-11-30T13:03:27.998Z,14.65
2017-11-30T13:04:34.474Z,14.50
2017-11-30T13:05:40.760Z,14.65
2017-11-30T13:06:46.201Z,14.48
2017-11-30T13:07:51.909Z,17.85
2017-11-30T13:08:57.622Z,15.00
2017-11-30T13:10:04.143Z,15.25
2017-11-30T13:11:09.666Z,14.70
2017-11-30T13:12:15.401Z,15.40
2017-11-30T13:13:20.948Z,15.35
2017-11-30T13:14:26.329Z,15.35
2017-11-30T13:15:32.036Z,14.50
2017-11-30T13:16:37.758Z,13.50
2017-11-30T13:17:43.494Z,14.18
2017-11-30T13:18:49.209Z,13.77
2017-11-30T13:19:55.484Z,12.80
2017-11-30T13:21:01.203Z,12.35
2017-11-30T13:22:07.680Z,13.88
2017-11-30T13:23:13.239Z,14.00
2017-11-30T13:24:18.753Z,13.25
2017-11-30T13:25:24.287Z,13.73
2017-11-30T13:26:29.987Z,13.20
2017-11-30T13:27:35.720Z,14.13
2017-11-30T13:28:41.499Z,13.07
2017-11-30T13:29:47.801Z,13.75
2017-11-30T13:30:53.533Z,13.90
2017-11-30T13:31:59.055Z,12.70
2017-11-30T13:33:04.554Z,13.30
2017-11-30T13:34:11.061Z,12.00
2017-11-30T13:35:16.578Z,13.15
2017-11-30T13:36:22.302Z,13.32
2017-11-30T13:37:28.580Z,12.27
2017-11-30T13:38:33.962Z,12.82
2017-11-30T13:39:39.700Z,12.77
2017-11-30T13:40:45.405Z,10.77
2017-11-30T13:41:51.117Z,11.73
2017-11-30T13:42:56.830Z,12.45
2017-11-30T13:44:03.306Z,12.88
2017-11-30T13:45:09.054Z,12.90
2017-11-30T13:46:14.771Z,12.57
2017-11-30T13:47:20.479Z,12.25
2017-11-30T13:48:26.215Z,12.20
2017-11-30T13:49:32.157Z,13.30
2017-11-30T13:50:37.688Z,11.90
2017-11-30T13:51:43.404Z,12.93
2017-11-30T13:52:49.102Z,12.95
2017-11-30T13:53:54.812Z,12.82
2017-11-30T13:55:00.534Z,14.02
2017-11-30T13:56:06.268Z,13.00
2017-11-30T13:57:11.939Z,12.82
2017-11-30T13:58:23.508Z,12.27
2017-11-30T13:59:29.217Z,13.98
2017-11-30T14:00:34.921Z,13.52
2017-11-30T14:01:40.669Z,13.35
2017-11-30T14:02:46.951Z,12.73
2017-11-30T14:03:52.659Z,13.02
2017-11-30T14:04:58.365Z,12.35
2017-11-30T14:06:04.073Z,12.88
2017-11-30T14:07:09.615Z,13.60
2017-11-30T14:08:15.329Z,13.30